sensor_id;sensor_type;location;lat;lon;timestamp;P1;durP1;ratioP1;P2;durP2;ratioP2
8887;SDS011;4480;52.370;9.748;2023-05-16T00:01:56;14.60;;;12.70;;
8887;SDS011;4480;52.370;9.748;2023-05-16T00:04:22;12.68;;;11.02;;
8887;SDS011;4480;52.370;9.748;2023-05-16T00:06:50;11.80;;;10.60;;
8887;SDS011;4480;52.370;9.748;2023-05-16T00:09:18;14.88;;;13.38;;
8887;SDS011;4480;52.370;9.748;2023-05-16T00:11:45;13.40;;;11.73;;
8887;SDS011;4480;52.370;9.748;2023-05-16T00:14:14;13.85;;;12.40;;
8887;SDS011;4480;52.370;9.748;2023-05-16T00:16:41;13.75;;;12.23;;
8887;SDS011;4480;52.370;9.748;2023-05-16T00:19:07;14.20;;;12.70;;
8887;SDS011;4480;52.370;9.748;2023-05-16T00:21:35;13.40;;;12.20;;
8887;SDS011;4480;52.370;9.748;2023-05-16T00:24:02;16.27;;;12.97;;
8887;SDS011;4480;52.370;9.748;2023-05-16T00:26:31;16.02;;;12.45;;
8887;SDS011;4480;52.370;9.748;2023-05-16T00:28:57;15.13;;;13.52;;
8887;SDS011;4480;52.370;9.748;2023-05-16T00:31:24;15.07;;;13.57;;
8887;SDS011;4480;52.370;9.748;2023-05-16T00:33:51;17.40;;;13.90;;
8887;SDS011;4480;52.370;9.748;2023-05-16T00:36:18;15.40;;;12.40;;
8887;SDS011;4480;52.370;9.748;2023-05-16T00:38:46;16.65;;;13.77;;
8887;SDS011;4480;52.370;9.748;2023-05-16T00:41:13;13.73;;;12.25;;
8887;SDS011;4480;52.370;9.748;2023-05-16T00:43:41;17.23;;;12.80;;
8887;SDS011;4480;52.370;9.748;2023-05-16T00:46:08;15.30;;;13.10;;
8887;SDS011;4480;52.370;9.748;2023-05-16T00:48:34;14.77;;;12.70;;
8887;SDS011;4480;52.370;9.748;2023-05-16T00:51:01;14.43;;;11.03;;
8887;SDS011;4480;52.370;9.748;2023-05-16T00:53:28;11.38;;;10.23;;
8887;SDS011;4480;52.370;9.748;2023-05-16T00:55:55;10.67;;;9.57;;
8887;SDS011;4480;52.370;9.748;2023-05-16T00:58:22;11.90;;;9.50;;
8887;SDS011;4480;52.370;9.748;2023-05-16T01:00:51;9.40;;;8.37;;
8887;SDS011;4480;52.370;9.748;2023-05-16T01:03:18;11.83;;;9.30;;
8887;SDS011;4480;52.370;9.748;2023-05-16T01:05:45;8.23;;;7.43;;
8887;SDS011;4480;52.370;9.748;2023-05-16T01:08:12;8.60;;;6.13;;
8887;SDS011;4480;52.370;9.748;2023-05-16T01:10:41;6.25;;;5.72;;
8887;SDS011;4480;52.370;9.748;2023-05-16T01:13:16;5.55;;;5.05;;
8887;SDS011;4480;52.370;9.748;2023-05-16T01:15:49;8.63;;;5.05;;
8887;SDS011;4480;52.370;9.748;2023-05-16T01:18:28;6.25;;;4.32;;
8887;SDS011;4480;52.370;9.748;2023-05-16T01:21:03;5.40;;;4.70;;
8887;SDS011;4480;52.370;9.748;2023-05-16T01:23:39;6.40;;;5.33;;
8887;SDS011;4480;52.370;9.748;2023-05-16T01:26:18;6.03;;;5.43;;
8887;SDS011;4480;52.370;9.748;2023-05-16T01:28:46;6.63;;;5.80;;
8887;SDS011;4480;52.370;9.748;2023-05-16T01:31:14;7.57;;;6.30;;
8887;SDS011;4480;52.370;9.748;2023-05-16T01:33:42;9.10;;;6.00;;
8887;SDS011;4480;52.370;9.748;2023-05-16T01:36:10;8.27;;;7.23;;
8887;SDS011;4480;52.370;9.748;2023-05-16T01:38:48;7.73;;;7.00;;
8887;SDS011;4480;52.370;9.748;2023-05-16T01:41:28;11.93;;;7.27;;
8887;SDS011;4480;52.370;9.748;2023-05-16T01:44:06;12.00;;;8.07;;
8887;SDS011;4480;52.370;9.748;2023-05-16T01:46:41;6.60;;;6.00;;
8887;SDS011;4480;52.370;9.748;2023-05-16T01:49:14;8.53;;;7.63;;
8887;SDS011;4480;52.370;9.748;2023-05-16T01:51:42;7.90;;;6.63;;
8887;SDS011;4480;52.370;9.748;2023-05-16T01:54:13;7.77;;;6.80;;
8887;SDS011;4480;52.370;9.748;2023-05-16T01:56:45;8.30;;;6.70;;
8887;SDS011;4480;52.370;9.748;2023-05-16T01:59:17;7.40;;;6.70;;
8887;SDS011;4480;52.370;9.748;2023-05-16T02:01:45;11.17;;;7.97;;
8887;SDS011;4480;52.370;9.748;2023-05-16T02:04:11;12.50;;;6.87;;
8887;SDS011;4480;52.370;9.748;2023-05-16T02:06:39;7.95;;;6.28;;
8887;SDS011;4480;52.370;9.748;2023-05-16T02:09:06;7.70;;;6.70;;
8887;SDS011;4480;52.370;9.748;2023-05-16T02:11:33;9.70;;;6.00;;
8887;SDS011;4480;52.370;9.748;2023-05-16T02:14:01;9.18;;;6.85;;
8887;SDS011;4480;52.370;9.748;2023-05-16T02:16:28;10.00;;;6.43;;
8887;SDS011;4480;52.370;9.748;2023-05-16T02:18:55;7.03;;;6.07;;
8887;SDS011;4480;52.370;9.748;2023-05-16T02:21:22;8.20;;;5.87;;
8887;SDS011;4480;52.370;9.748;2023-05-16T02:23:49;6.50;;;5.67;;
8887;SDS011;4480;52.370;9.748;2023-05-16T02:26:16;8.00;;;5.72;;
8887;SDS011;4480;52.370;9.748;2023-05-16T02:28:43;6.33;;;5.57;;
8887;SDS011;4480;52.370;9.748;2023-05-16T02:31:11;9.35;;;5.15;;
8887;SDS011;4480;52.370;9.748;2023-05-16T02:33:38;8.93;;;5.25;;
8887;SDS011;4480;52.370;9.748;2023-05-16T02:36:05;6.73;;;5.10;;
8887;SDS011;4480;52.370;9.748;2023-05-16T02:38:32;6.93;;;5.03;;
8887;SDS011;4480;52.370;9.748;2023-05-16T02:40:59;6.40;;;5.50;;
8887;SDS011;4480;52.370;9.748;2023-05-16T02:43:26;8.88;;;5.63;;
8887;SDS011;4480;52.370;9.748;2023-05-16T02:45:53;6.97;;;4.85;;
8887;SDS011;4480;52.370;9.748;2023-05-16T02:48:21;8.00;;;5.00;;
8887;SDS011;4480;52.370;9.748;2023-05-16T02:50:48;9.10;;;5.03;;
8887;SDS011;4480;52.370;9.748;2023-05-16T02:53:14;5.20;;;4.70;;
8887;SDS011;4480;52.370;9.748;2023-05-16T02:55:41;7.80;;;3.85;;
8887;SDS011;4480;52.370;9.748;2023-05-16T02:58:08;6.93;;;4.35;;
8887;SDS011;4480;52.370;9.748;2023-05-16T03:00:35;9.23;;;4.47;;
8887;SDS011;4480;52.370;9.748;2023-05-16T03:03:02;8.55;;;5.38;;
8887;SDS011;4480;52.370;9.748;2023-05-16T03:05:30;9.02;;;5.30;;
8887;SDS011;4480;52.370;9.748;2023-05-16T03:07:57;6.47;;;5.28;;
8887;SDS011;4480;52.370;9.748;2023-05-16T03:10:24;8.15;;;4.15;;
8887;SDS011;4480;52.370;9.748;2023-05-16T03:12:51;10.80;;;4.80;;
8887;SDS011;4480;52.370;9.748;2023-05-16T03:15:17;8.95;;;4.13;;
8887;SDS011;4480;52.370;9.748;2023-05-16T03:17:44;6.78;;;3.45;;
8887;SDS011;4480;52.370;9.748;2023-05-16T03:20:11;6.75;;;4.63;;
8887;SDS011;4480;52.370;9.748;2023-05-16T03:22:40;7.05;;;4.10;;
8887;SDS011;4480;52.370;9.748;2023-05-16T03:25:09;6.13;;;3.58;;
8887;SDS011;4480;52.370;9.748;2023-05-16T03:27:35;7.93;;;3.40;;
8887;SDS011;4480;52.370;9.748;2023-05-16T03:30:02;9.20;;;3.70;;
8887;SDS011;4480;52.370;9.748;2023-05-16T03:32:30;7.95;;;4.00;;
8887;SDS011;4480;52.370;9.748;2023-05-16T03:34:56;10.57;;;3.83;;
8887;SDS011;4480;52.370;9.748;2023-05-16T03:37:23;4.10;;;3.70;;
8887;SDS011;4480;52.370;9.748;2023-05-16T03:39:52;5.78;;;3.95;;
8887;SDS011;4480;52.370;9.748;2023-05-16T03:42:18;13.45;;;4.22;;
8887;SDS011;4480;52.370;9.748;2023-05-16T03:44:45;10.70;;;3.90;;
8887;SDS011;4480;52.370;9.748;2023-05-16T03:47:12;3.95;;;3.55;;
8887;SDS011;4480;52.370;9.748;2023-05-16T03:49:39;7.00;;;3.50;;
8887;SDS011;4480;52.370;9.748;2023-05-16T03:52:06;6.13;;;3.22;;
8887;SDS011;4480;52.370;9.748;2023-05-16T03:54:33;4.25;;;3.63;;
8887;SDS011;4480;52.370;9.748;2023-05-16T03:57:01;7.43;;;3.40;;
8887;SDS011;4480;52.370;9.748;2023-05-16T03:59:28;8.05;;;3.80;;
8887;SDS011;4480;52.370;9.748;2023-05-16T04:01:55;5.25;;;3.30;;
8887;SDS011;4480;52.370;9.748;2023-05-16T04:04:22;6.75;;;4.45;;
8887;SDS011;4480;52.370;9.748;2023-05-16T04:06:49;11.95;;;4.30;;
8887;SDS011;4480;52.370;9.748;2023-05-16T04:11:39;9.23;;;4.28;;
8887;SDS011;4480;52.370;9.748;2023-05-16T04:14:06;6.88;;;4.10;;
8887;SDS011;4480;52.370;9.748;2023-05-16T04:16:32;8.95;;;3.88;;
8887;SDS011;4480;52.370;9.748;2023-05-16T04:18:59;9.65;;;4.60;;
8887;SDS011;4480;52.370;9.748;2023-05-16T04:21:27;7.75;;;3.33;;
8887;SDS011;4480;52.370;9.748;2023-05-16T04:23:55;13.73;;;4.38;;
8887;SDS011;4480;52.370;9.748;2023-05-16T04:26:22;11.07;;;4.25;;
8887;SDS011;4480;52.370;9.748;2023-05-16T04:28:50;10.80;;;4.18;;
8887;SDS011;4480;52.370;9.748;2023-05-16T04:31:16;6.50;;;3.22;;
8887;SDS011;4480;52.370;9.748;2023-05-16T04:33:43;11.00;;;3.88;;
8887;SDS011;4480;52.370;9.748;2023-05-16T04:36:10;6.75;;;3.67;;
8887;SDS011;4480;52.370;9.748;2023-05-16T04:38:37;6.55;;;4.00;;
8887;SDS011;4480;52.370;9.748;2023-05-16T04:41:04;6.30;;;3.08;;
8887;SDS011;4480;52.370;9.748;2023-05-16T04:43:31;13.38;;;3.50;;
8887;SDS011;4480;52.370;9.748;2023-05-16T04:45:59;10.02;;;3.55;;
8887;SDS011;4480;52.370;9.748;2023-05-16T04:48:26;7.35;;;3.10;;
8887;SDS011;4480;52.370;9.748;2023-05-16T04:50:53;8.38;;;2.90;;
8887;SDS011;4480;52.370;9.748;2023-05-16T04:53:19;10.13;;;3.55;;
8887;SDS011;4480;52.370;9.748;2023-05-16T04:55:46;8.07;;;3.88;;
8887;SDS011;4480;52.370;9.748;2023-05-16T04:58:13;10.07;;;4.50;;
8887;SDS011;4480;52.370;9.748;2023-05-16T05:00:40;10.88;;;3.05;;
8887;SDS011;4480;52.370;9.748;2023-05-16T05:03:08;16.67;;;4.43;;
8887;SDS011;4480;52.370;9.748;2023-05-16T05:05:35;9.68;;;2.88;;
8887;SDS011;4480;52.370;9.748;2023-05-16T05:08:02;8.93;;;3.80;;
8887;SDS011;4480;52.370;9.748;2023-05-16T05:10:29;7.88;;;3.10;;
8887;SDS011;4480;52.370;9.748;2023-05-16T05:12:56;8.70;;;3.00;;
8887;SDS011;4480;52.370;9.748;2023-05-16T05:15:22;12.27;;;2.90;;
8887;SDS011;4480;52.370;9.748;2023-05-16T05:17:49;9.50;;;3.25;;
8887;SDS011;4480;52.370;9.748;2023-05-16T05:20:17;6.15;;;2.63;;
8887;SDS011;4480;52.370;9.748;2023-05-16T05:22:44;6.93;;;2.92;;
8887;SDS011;4480;52.370;9.748;2023-05-16T05:25:11;9.00;;;2.70;;
8887;SDS011;4480;52.370;9.748;2023-05-16T05:27:39;17.42;;;3.33;;
8887;SDS011;4480;52.370;9.748;2023-05-16T05:30:06;12.50;;;3.78;;
8887;SDS011;4480;52.370;9.748;2023-05-16T05:32:33;10.60;;;3.03;;
8887;SDS011;4480;52.370;9.748;2023-05-16T05:35:00;6.75;;;3.25;;
8887;SDS011;4480;52.370;9.748;2023-05-16T05:37:29;11.70;;;3.70;;
8887;SDS011;4480;52.370;9.748;2023-05-16T05:39:55;7.90;;;3.65;;
8887;SDS011;4480;52.370;9.748;2023-05-16T05:42:22;4.97;;;2.60;;
8887;SDS011;4480;52.370;9.748;2023-05-16T05:44:49;7.20;;;2.20;;
8887;SDS011;4480;52.370;9.748;2023-05-16T05:47:16;10.20;;;3.58;;
8887;SDS011;4480;52.370;9.748;2023-05-16T05:49:43;6.90;;;2.80;;
8887;SDS011;4480;52.370;9.748;2023-05-16T05:52:10;14.67;;;2.53;;
8887;SDS011;4480;52.370;9.748;2023-05-16T05:54:38;6.10;;;1.77;;
8887;SDS011;4480;52.370;9.748;2023-05-16T05:57:05;9.20;;;2.55;;
8887;SDS011;4480;52.370;9.748;2023-05-16T05:59:31;6.00;;;2.10;;
8887;SDS011;4480;52.370;9.748;2023-05-16T06:01:58;11.40;;;2.85;;
8887;SDS011;4480;52.370;9.748;2023-05-16T06:04:25;11.93;;;2.45;;
8887;SDS011;4480;52.370;9.748;2023-05-16T06:06:52;11.75;;;3.85;;
8887;SDS011;4480;52.370;9.748;2023-05-16T06:09:19;11.65;;;3.63;;
8887;SDS011;4480;52.370;9.748;2023-05-16T06:11:48;11.30;;;3.03;;
8887;SDS011;4480;52.370;9.748;2023-05-16T06:14:15;7.90;;;2.80;;
8887;SDS011;4480;52.370;9.748;2023-05-16T06:16:41;7.85;;;2.40;;
8887;SDS011;4480;52.370;9.748;2023-05-16T06:19:08;12.63;;;2.80;;
8887;SDS011;4480;52.370;9.748;2023-05-16T06:21:36;6.67;;;2.60;;
8887;SDS011;4480;52.370;9.748;2023-05-16T06:24:03;14.83;;;2.80;;
8887;SDS011;4480;52.370;9.748;2023-05-16T06:26:30;6.57;;;2.43;;
8887;SDS011;4480;52.370;9.748;2023-05-16T06:28:59;7.23;;;3.00;;
8887;SDS011;4480;52.370;9.748;2023-05-16T06:31:26;11.52;;;3.13;;
8887;SDS011;4480;52.370;9.748;2023-05-16T06:33:53;11.27;;;2.92;;
8887;SDS011;4480;52.370;9.748;2023-05-16T06:36:20;15.23;;;3.40;;
8887;SDS011;4480;52.370;9.748;2023-05-16T06:38:47;8.18;;;2.97;;
8887;SDS011;4480;52.370;9.748;2023-05-16T06:41:15;7.70;;;2.57;;
8887;SDS011;4480;52.370;9.748;2023-05-16T06:43:41;8.70;;;2.37;;
8887;SDS011;4480;52.370;9.748;2023-05-16T06:46:09;5.80;;;2.70;;
8887;SDS011;4480;52.370;9.748;2023-05-16T06:48:36;7.07;;;2.00;;
8887;SDS011;4480;52.370;9.748;2023-05-16T06:51:03;5.43;;;1.77;;
8887;SDS011;4480;52.370;9.748;2023-05-16T06:53:30;5.00;;;2.10;;
8887;SDS011;4480;52.370;9.748;2023-05-16T06:55:57;9.90;;;2.20;;
8887;SDS011;4480;52.370;9.748;2023-05-16T06:58:23;5.40;;;1.50;;
8887;SDS011;4480;52.370;9.748;2023-05-16T07:00:51;5.03;;;1.70;;
8887;SDS011;4480;52.370;9.748;2023-05-16T07:03:19;7.70;;;1.80;;
8887;SDS011;4480;52.370;9.748;2023-05-16T07:05:46;3.40;;;1.47;;
8887;SDS011;4480;52.370;9.748;2023-05-16T07:08:15;5.97;;;2.03;;
8887;SDS011;4480;52.370;9.748;2023-05-16T07:10:42;7.33;;;2.00;;
8887;SDS011;4480;52.370;9.748;2023-05-16T07:13:09;7.50;;;1.53;;
8887;SDS011;4480;52.370;9.748;2023-05-16T07:15:36;4.07;;;1.57;;
8887;SDS011;4480;52.370;9.748;2023-05-16T07:18:02;4.50;;;1.77;;
8887;SDS011;4480;52.370;9.748;2023-05-16T07:20:31;4.73;;;1.83;;
8887;SDS011;4480;52.370;9.748;2023-05-16T07:22:58;6.30;;;2.60;;
8887;SDS011;4480;52.370;9.748;2023-05-16T07:25:24;11.07;;;1.70;;
8887;SDS011;4480;52.370;9.748;2023-05-16T07:27:51;5.43;;;1.83;;
8887;SDS011;4480;52.370;9.748;2023-05-16T07:30:18;8.33;;;2.63;;
8887;SDS011;4480;52.370;9.748;2023-05-16T07:32:45;9.70;;;2.10;;
8887;SDS011;4480;52.370;9.748;2023-05-16T07:35:12;6.60;;;1.80;;
8887;SDS011;4480;52.370;9.748;2023-05-16T07:37:40;7.80;;;2.00;;
8887;SDS011;4480;52.370;9.748;2023-05-16T07:40:08;3.50;;;1.60;;
8887;SDS011;4480;52.370;9.748;2023-05-16T07:42:35;6.40;;;2.03;;
8887;SDS011;4480;52.370;9.748;2023-05-16T07:45:02;4.63;;;1.50;;
8887;SDS011;4480;52.370;9.748;2023-05-16T07:47:30;2.03;;;1.40;;
8887;SDS011;4480;52.370;9.748;2023-05-16T07:49:57;3.60;;;1.40;;
8887;SDS011;4480;52.370;9.748;2023-05-16T07:52:24;6.17;;;2.07;;
8887;SDS011;4480;52.370;9.748;2023-05-16T07:54:52;3.13;;;1.67;;
8887;SDS011;4480;52.370;9.748;2023-05-16T07:57:19;10.93;;;2.73;;
8887;SDS011;4480;52.370;9.748;2023-05-16T07:59:46;4.63;;;1.60;;
8887;SDS011;4480;52.370;9.748;2023-05-16T08:02:13;5.30;;;1.73;;
8887;SDS011;4480;52.370;9.748;2023-05-16T08:04:41;4.33;;;1.80;;
8887;SDS011;4480;52.370;9.748;2023-05-16T08:07:07;4.20;;;2.37;;
8887;SDS011;4480;52.370;9.748;2023-05-16T08:09:34;9.10;;;2.10;;
8887;SDS011;4480;52.370;9.748;2023-05-16T08:12:03;3.60;;;1.60;;
8887;SDS011;4480;52.370;9.748;2023-05-16T08:14:30;17.83;;;3.03;;
8887;SDS011;4480;52.370;9.748;2023-05-16T08:16:57;3.87;;;1.60;;
8887;SDS011;4480;52.370;9.748;2023-05-16T08:19:24;5.60;;;1.53;;
8887;SDS011;4480;52.370;9.748;2023-05-16T08:21:51;5.33;;;1.50;;
8887;SDS011;4480;52.370;9.748;2023-05-16T08:24:18;5.07;;;1.67;;
8887;SDS011;4480;52.370;9.748;2023-05-16T08:26:45;3.53;;;1.90;;
8887;SDS011;4480;52.370;9.748;2023-05-16T08:29:13;2.93;;;1.47;;
8887;SDS011;4480;52.370;9.748;2023-05-16T08:31:40;3.40;;;1.23;;
8887;SDS011;4480;52.370;9.748;2023-05-16T08:34:07;3.87;;;1.17;;
8887;SDS011;4480;52.370;9.748;2023-05-16T08:36:34;2.67;;;1.20;;
8887;SDS011;4480;52.370;9.748;2023-05-16T08:39:01;3.53;;;1.30;;
8887;SDS011;4480;52.370;9.748;2023-05-16T08:41:29;5.13;;;1.73;;
8887;SDS011;4480;52.370;9.748;2023-05-16T08:43:56;6.00;;;1.90;;
8887;SDS011;4480;52.370;9.748;2023-05-16T08:46:24;5.70;;;1.80;;
8887;SDS011;4480;52.370;9.748;2023-05-16T08:48:53;4.30;;;1.77;;
8887;SDS011;4480;52.370;9.748;2023-05-16T08:51:24;5.20;;;1.80;;
8887;SDS011;4480;52.370;9.748;2023-05-16T08:53:53;3.67;;;1.63;;
8887;SDS011;4480;52.370;9.748;2023-05-16T08:56:24;4.70;;;1.40;;
8887;SDS011;4480;52.370;9.748;2023-05-16T08:58:52;8.07;;;1.83;;
8887;SDS011;4480;52.370;9.748;2023-05-16T09:01:19;6.20;;;1.30;;
8887;SDS011;4480;52.370;9.748;2023-05-16T09:03:49;6.17;;;2.00;;
8887;SDS011;4480;52.370;9.748;2023-05-16T09:06:16;6.40;;;1.60;;
8887;SDS011;4480;52.370;9.748;2023-05-16T09:08:43;2.60;;;1.40;;
8887;SDS011;4480;52.370;9.748;2023-05-16T09:11:09;2.73;;;1.07;;
8887;SDS011;4480;52.370;9.748;2023-05-16T09:13:37;8.10;;;1.70;;
8887;SDS011;4480;52.370;9.748;2023-05-16T09:16:07;8.03;;;1.20;;
8887;SDS011;4480;52.370;9.748;2023-05-16T09:18:36;2.83;;;1.47;;
8887;SDS011;4480;52.370;9.748;2023-05-16T09:21:04;4.77;;;1.57;;
8887;SDS011;4480;52.370;9.748;2023-05-16T09:23:32;3.40;;;1.10;;
8887;SDS011;4480;52.370;9.748;2023-05-16T09:26:00;3.53;;;1.30;;
8887;SDS011;4480;52.370;9.748;2023-05-16T09:28:27;8.13;;;1.13;;
8887;SDS011;4480;52.370;9.748;2023-05-16T09:30:53;3.53;;;1.10;;
8887;SDS011;4480;52.370;9.748;2023-05-16T09:33:23;7.57;;;1.60;;
8887;SDS011;4480;52.370;9.748;2023-05-16T09:35:55;3.30;;;1.40;;
8887;SDS011;4480;52.370;9.748;2023-05-16T09:38:24;2.83;;;1.63;;
8887;SDS011;4480;52.370;9.748;2023-05-16T09:40:52;4.23;;;1.20;;
8887;SDS011;4480;52.370;9.748;2023-05-16T09:43:21;2.60;;;1.00;;
8887;SDS011;4480;52.370;9.748;2023-05-16T09:45:50;3.57;;;2.00;;
8887;SDS011;4480;52.370;9.748;2023-05-16T09:48:18;3.83;;;1.33;;
8887;SDS011;4480;52.370;9.748;2023-05-16T09:50:48;6.10;;;1.13;;
8887;SDS011;4480;52.370;9.748;2023-05-16T09:53:18;4.23;;;1.53;;
8887;SDS011;4480;52.370;9.748;2023-05-16T09:55:58;1.43;;;1.10;;
8887;SDS011;4480;52.370;9.748;2023-05-16T09:58:29;3.43;;;1.17;;
8887;SDS011;4480;52.370;9.748;2023-05-16T10:00:56;6.00;;;1.30;;
8887;SDS011;4480;52.370;9.748;2023-05-16T10:03:24;5.13;;;1.63;;
8887;SDS011;4480;52.370;9.748;2023-05-16T10:05:51;5.97;;;1.40;;
8887;SDS011;4480;52.370;9.748;2023-05-16T10:08:19;4.00;;;0.90;;
8887;SDS011;4480;52.370;9.748;2023-05-16T10:10:49;3.20;;;1.43;;
8887;SDS011;4480;52.370;9.748;2023-05-16T10:13:18;3.10;;;1.20;;
8887;SDS011;4480;52.370;9.748;2023-05-16T10:15:47;2.70;;;1.23;;
8887;SDS011;4480;52.370;9.748;2023-05-16T10:18:15;6.70;;;1.53;;
8887;SDS011;4480;52.370;9.748;2023-05-16T10:20:44;3.10;;;1.40;;
8887;SDS011;4480;52.370;9.748;2023-05-16T10:23:15;7.33;;;1.57;;
8887;SDS011;4480;52.370;9.748;2023-05-16T10:25:43;3.47;;;1.17;;
8887;SDS011;4480;52.370;9.748;2023-05-16T10:28:12;2.33;;;1.30;;
8887;SDS011;4480;52.370;9.748;2023-05-16T10:30:40;2.60;;;1.20;;
8887;SDS011;4480;52.370;9.748;2023-05-16T10:33:09;7.83;;;2.17;;
8887;SDS011;4480;52.370;9.748;2023-05-16T10:35:37;5.30;;;1.77;;
8887;SDS011;4480;52.370;9.748;2023-05-16T10:38:04;3.97;;;1.43;;
8887;SDS011;4480;52.370;9.748;2023-05-16T10:40:33;3.10;;;1.23;;
8887;SDS011;4480;52.370;9.748;2023-05-16T10:43:02;5.37;;;1.40;;
8887;SDS011;4480;52.370;9.748;2023-05-16T10:45:30;2.83;;;1.00;;
8887;SDS011;4480;52.370;9.748;2023-05-16T10:47:58;6.07;;;1.47;;
8887;SDS011;4480;52.370;9.748;2023-05-16T10:50:29;5.47;;;1.30;;
8887;SDS011;4480;52.370;9.748;2023-05-16T10:53:09;4.13;;;1.20;;
8887;SDS011;4480;52.370;9.748;2023-05-16T10:55:47;5.30;;;1.50;;
8887;SDS011;4480;52.370;9.748;2023-05-16T10:58:22;3.93;;;1.33;;
8887;SDS011;4480;52.370;9.748;2023-05-16T11:04:03;1.80;;;0.90;;
8887;SDS011;4480;52.370;9.748;2023-05-16T11:06:31;3.40;;;1.37;;
8887;SDS011;4480;52.370;9.748;2023-05-16T11:09:06;1.47;;;1.13;;
8887;SDS011;4480;52.370;9.748;2023-05-16T11:11:37;2.87;;;1.60;;
8887;SDS011;4480;52.370;9.748;2023-05-16T11:14:05;2.57;;;1.00;;
8887;SDS011;4480;52.370;9.748;2023-05-16T11:16:37;2.83;;;1.37;;
8887;SDS011;4480;52.370;9.748;2023-05-16T11:19:04;3.00;;;1.17;;
8887;SDS011;4480;52.370;9.748;2023-05-16T11:24:31;3.53;;;1.70;;
8887;SDS011;4480;52.370;9.748;2023-05-16T11:26:59;2.77;;;1.33;;
8887;SDS011;4480;52.370;9.748;2023-05-16T11:29:35;5.43;;;1.30;;
8887;SDS011;4480;52.370;9.748;2023-05-16T11:32:03;2.47;;;1.23;;
8887;SDS011;4480;52.370;9.748;2023-05-16T11:34:31;5.37;;;1.30;;
8887;SDS011;4480;52.370;9.748;2023-05-16T11:37:01;2.30;;;1.27;;
8887;SDS011;4480;52.370;9.748;2023-05-16T11:39:29;2.57;;;1.20;;
8887;SDS011;4480;52.370;9.748;2023-05-16T11:41:56;2.77;;;1.37;;
8887;SDS011;4480;52.370;9.748;2023-05-16T11:44:23;7.63;;;1.97;;
8887;SDS011;4480;52.370;9.748;2023-05-16T11:46:50;2.50;;;1.10;;
8887;SDS011;4480;52.370;9.748;2023-05-16T11:49:18;7.10;;;1.90;;
8887;SDS011;4480;52.370;9.748;2023-05-16T11:51:45;3.60;;;1.60;;
8887;SDS011;4480;52.370;9.748;2023-05-16T11:54:13;3.43;;;1.17;;
8887;SDS011;4480;52.370;9.748;2023-05-16T11:56:40;3.50;;;1.60;;
8887;SDS011;4480;52.370;9.748;2023-05-16T11:59:09;4.90;;;1.40;;
8887;SDS011;4480;52.370;9.748;2023-05-16T12:01:37;2.40;;;1.27;;
8887;SDS011;4480;52.370;9.748;2023-05-16T12:04:06;3.43;;;1.07;;
8887;SDS011;4480;52.370;9.748;2023-05-16T12:06:35;3.87;;;1.40;;
8887;SDS011;4480;52.370;9.748;2023-05-16T12:09:02;4.87;;;1.40;;
8887;SDS011;4480;52.370;9.748;2023-05-16T12:11:35;3.47;;;1.17;;
8887;SDS011;4480;52.370;9.748;2023-05-16T12:14:13;3.20;;;1.50;;
8887;SDS011;4480;52.370;9.748;2023-05-16T12:17:07;2.60;;;1.67;;
8887;SDS011;4480;52.370;9.748;2023-05-16T12:19:39;7.60;;;1.83;;
8887;SDS011;4480;52.370;9.748;2023-05-16T12:22:13;4.60;;;1.57;;
8887;SDS011;4480;52.370;9.748;2023-05-16T12:24:41;4.90;;;1.83;;
8887;SDS011;4480;52.370;9.748;2023-05-16T12:27:08;1.40;;;1.03;;
8887;SDS011;4480;52.370;9.748;2023-05-16T12:32:23;3.50;;;1.30;;
8887;SDS011;4480;52.370;9.748;2023-05-16T12:34:50;5.47;;;1.60;;
8887;SDS011;4480;52.370;9.748;2023-05-16T12:37:24;5.70;;;1.60;;
8887;SDS011;4480;52.370;9.748;2023-05-16T12:39:59;1.87;;;1.30;;
8887;SDS011;4480;52.370;9.748;2023-05-16T12:42:26;4.80;;;1.80;;
8887;SDS011;4480;52.370;9.748;2023-05-16T12:44:54;3.20;;;1.20;;
8887;SDS011;4480;52.370;9.748;2023-05-16T12:47:21;12.70;;;1.40;;
8887;SDS011;4480;52.370;9.748;2023-05-16T12:49:48;2.30;;;1.40;;
8887;SDS011;4480;52.370;9.748;2023-05-16T12:52:20;5.37;;;1.50;;
8887;SDS011;4480;52.370;9.748;2023-05-16T12:54:47;4.43;;;1.57;;
8887;SDS011;4480;52.370;9.748;2023-05-16T12:57:14;6.63;;;1.67;;
8887;SDS011;4480;52.370;9.748;2023-05-16T12:59:41;24.33;;;2.10;;
8887;SDS011;4480;52.370;9.748;2023-05-16T13:02:07;4.73;;;1.40;;
8887;SDS011;4480;52.370;9.748;2023-05-16T13:04:35;4.00;;;1.63;;
8887;SDS011;4480;52.370;9.748;2023-05-16T13:07:01;2.93;;;1.10;;
8887;SDS011;4480;52.370;9.748;2023-05-16T13:09:31;4.47;;;1.57;;
8887;SDS011;4480;52.370;9.748;2023-05-16T13:11:58;4.40;;;1.53;;
8887;SDS011;4480;52.370;9.748;2023-05-16T13:14:25;4.17;;;1.33;;
8887;SDS011;4480;52.370;9.748;2023-05-16T13:16:51;4.80;;;1.33;;
8887;SDS011;4480;52.370;9.748;2023-05-16T13:19:18;2.73;;;1.10;;
8887;SDS011;4480;52.370;9.748;2023-05-16T13:21:47;4.60;;;1.50;;
8887;SDS011;4480;52.370;9.748;2023-05-16T13:24:13;3.00;;;1.13;;
8887;SDS011;4480;52.370;9.748;2023-05-16T13:26:42;1.30;;;0.90;;
8887;SDS011;4480;52.370;9.748;2023-05-16T13:29:08;3.03;;;1.10;;
8887;SDS011;4480;52.370;9.748;2023-05-16T13:31:36;3.03;;;1.30;;
8887;SDS011;4480;52.370;9.748;2023-05-16T13:34:03;2.50;;;1.27;;
8887;SDS011;4480;52.370;9.748;2023-05-16T13:36:30;2.27;;;1.40;;
8887;SDS011;4480;52.370;9.748;2023-05-16T13:38:57;1.17;;;1.00;;
8887;SDS011;4480;52.370;9.748;2023-05-16T13:41:24;4.33;;;1.20;;
8887;SDS011;4480;52.370;9.748;2023-05-16T13:43:52;4.00;;;1.30;;
8887;SDS011;4480;52.370;9.748;2023-05-16T13:46:19;3.13;;;1.20;;
8887;SDS011;4480;52.370;9.748;2023-05-16T13:48:46;2.40;;;1.10;;
8887;SDS011;4480;52.370;9.748;2023-05-16T13:51:13;1.67;;;0.93;;
8887;SDS011;4480;52.370;9.748;2023-05-16T13:53:40;4.33;;;1.17;;
8887;SDS011;4480;52.370;9.748;2023-05-16T13:56:07;4.13;;;1.10;;
8887;SDS011;4480;52.370;9.748;2023-05-16T13:58:34;4.60;;;1.70;;
8887;SDS011;4480;52.370;9.748;2023-05-16T14:01:02;2.17;;;1.17;;
8887;SDS011;4480;52.370;9.748;2023-05-16T14:03:29;1.90;;;1.20;;
8887;SDS011;4480;52.370;9.748;2023-05-16T14:05:56;2.30;;;0.83;;
8887;SDS011;4480;52.370;9.748;2023-05-16T14:08:23;3.73;;;1.20;;
8887;SDS011;4480;52.370;9.748;2023-05-16T14:10:50;2.70;;;1.23;;
8887;SDS011;4480;52.370;9.748;2023-05-16T14:13:17;1.70;;;1.20;;
8887;SDS011;4480;52.370;9.748;2023-05-16T14:15:44;2.20;;;1.00;;
8887;SDS011;4480;52.370;9.748;2023-05-16T14:18:12;1.47;;;0.97;;
8887;SDS011;4480;52.370;9.748;2023-05-16T14:20:41;2.83;;;1.17;;
8887;SDS011;4480;52.370;9.748;2023-05-16T14:23:07;2.57;;;1.10;;
8887;SDS011;4480;52.370;9.748;2023-05-16T14:25:34;3.37;;;1.10;;
8887;SDS011;4480;52.370;9.748;2023-05-16T14:28:01;5.30;;;1.30;;
8887;SDS011;4480;52.370;9.748;2023-05-16T14:30:28;1.53;;;1.00;;
8887;SDS011;4480;52.370;9.748;2023-05-16T14:32:58;3.07;;;1.13;;
8887;SDS011;4480;52.370;9.748;2023-05-16T14:35:26;2.50;;;1.00;;
8887;SDS011;4480;52.370;9.748;2023-05-16T14:37:53;5.87;;;1.80;;
8887;SDS011;4480;52.370;9.748;2023-05-16T14:40:20;3.20;;;1.57;;
8887;SDS011;4480;52.370;9.748;2023-05-16T14:42:47;4.23;;;1.60;;
8887;SDS011;4480;52.370;9.748;2023-05-16T14:45:14;4.57;;;1.80;;
8887;SDS011;4480;52.370;9.748;2023-05-16T14:47:41;1.87;;;0.93;;
8887;SDS011;4480;52.370;9.748;2023-05-16T14:50:08;4.30;;;2.33;;
8887;SDS011;4480;52.370;9.748;2023-05-16T14:52:38;4.47;;;1.50;;
8887;SDS011;4480;52.370;9.748;2023-05-16T14:55:05;1.73;;;1.03;;
8887;SDS011;4480;52.370;9.748;2023-05-16T14:57:32;2.40;;;1.17;;
8887;SDS011;4480;52.370;9.748;2023-05-16T14:59:59;3.27;;;1.50;;
8887;SDS011;4480;52.370;9.748;2023-05-16T15:02:26;3.07;;;1.20;;
8887;SDS011;4480;52.370;9.748;2023-05-16T15:04:52;3.87;;;1.50;;
8887;SDS011;4480;52.370;9.748;2023-05-16T15:07:19;3.80;;;1.57;;
8887;SDS011;4480;52.370;9.748;2023-05-16T15:09:48;2.40;;;1.03;;
8887;SDS011;4480;52.370;9.748;2023-05-16T15:12:14;3.70;;;1.00;;
8887;SDS011;4480;52.370;9.748;2023-05-16T15:14:41;1.20;;;1.10;;
8887;SDS011;4480;52.370;9.748;2023-05-16T15:17:08;2.20;;;1.33;;
8887;SDS011;4480;52.370;9.748;2023-05-16T15:19:35;2.33;;;1.80;;
8887;SDS011;4480;52.370;9.748;2023-05-16T15:22:01;5.03;;;1.00;;
8887;SDS011;4480;52.370;9.748;2023-05-16T15:24:31;2.63;;;1.13;;
8887;SDS011;4480;52.370;9.748;2023-05-16T15:27:00;2.73;;;1.27;;
8887;SDS011;4480;52.370;9.748;2023-05-16T15:29:29;2.03;;;1.10;;